Time;durP1;ratioP1;P1;durP2;ratioP2;P2;SDS_P1;SDS_P2;PMS_P1;PMS_P2;Temp;Humidity;BMP_temperature;BMP_pressure;BME280_temperature;BME280_humidity;BME280_pressure;Samples;Min_cycle;Max_cycle;Signal;HPM_P1;HPM_P2
2021/09/01 00:00:09;;;;;;;10.37;5.00;;;13.40;97.30;;;;;;5030580;28;20218;-82
2021/09/01 00:02:35;;;;;;;10.93;5.00;;;13.30;97.30;;;;;;5031404;28;20183;-83
2021/09/01 00:05:00;;;;;;;13.80;5.73;;;13.30;97.30;;;;;;5031487;28;20510;-82
2021/09/01 00:07:26;;;;;;;12.90;6.00;;;13.30;97.30;;;;;;5031674;28;20226;-82
2021/09/01 00:09:51;;;;;;;10.67;5.73;;;13.30;97.30;;;;;;5032931;28;20176;-82
2021/09/01 00:12:17;;;;;;;11.03;5.70;;;13.20;97.30;;;;;;5032469;28;20180;-82
2021/09/01 00:14:43;;;;;;;12.00;6.17;;;13.20;97.30;;;;;;5033965;28;20609;-82
2021/09/01 00:17:08;;;;;;;9.70;5.00;;;13.10;97.30;;;;;;5032201;28;20177;-82
2021/09/01 00:19:34;;;;;;;14.27;6.13;;;13.10;97.30;;;;;;5033521;28;20277;-82
2021/09/01 00:22:00;;;;;;;14.27;6.17;;;13.00;97.30;;;;;;5032054;28;20260;-82
2021/09/01 00:24:25;;;;;;;11.70;6.00;;;13.00;97.30;;;;;;5032729;28;20231;-82
2021/09/01 00:26:51;;;;;;;16.83;5.80;;;13.00;97.30;;;;;;5032104;28;20168;-83
2021/09/01 00:29:16;;;;;;;11.40;5.97;;;13.00;97.30;;;;;;5032140;28;20195;-82
2021/09/01 00:31:42;;;;;;;12.13;5.43;;;12.90;97.30;;;;;;5036861;28;20267;-82
2021/09/01 00:34:07;;;;;;;11.40;5.63;;;12.90;97.30;;;;;;5036169;28;20287;-82
2021/09/01 00:36:33;;;;;;;9.87;5.33;;;12.90;97.30;;;;;;5034681;28;20647;-83
2021/09/01 00:38:59;;;;;;;9.83;5.77;;;12.80;97.30;;;;;;5034328;28;20254;-83
2021/09/01 00:41:26;;;;;;;12.03;6.00;;;12.80;97.30;;;;;;5035475;28;20203;-83
2021/09/01 00:43:52;;;;;;;14.60;5.43;;;12.80;97.30;;;;;;5035519;28;20258;-82
2021/09/01 00:46:18;;;;;;;11.57;5.70;;;12.80;97.30;;;;;;5035220;28;20736;-82
2021/09/01 00:48:44;;;;;;;9.60;5.40;;;12.80;97.30;;;;;;5053341;28;20493;-82
2021/09/01 00:51:09;;;;;;;10.20;5.40;;;12.80;97.30;;;;;;5034823;28;20646;-82
2021/09/01 00:53:39;;;;;;;13.80;6.13;;;12.80;97.30;;;;;;5052905;28;20179;-82
2021/09/01 00:56:06;;;;;;;14.70;5.90;;;12.80;97.30;;;;;;5015202;28;20558;-82
2021/09/01 00:58:36;;;;;;;13.00;5.70;;;12.70;97.30;;;;;;5014874;28;20514;-82
2021/09/01 01:01:15;;;;;;;10.73;5.73;;;12.70;97.30;;;;;;5013958;28;20427;-82
2021/09/01 01:03:49;;;;;;;12.40;4.87;;;12.70;97.30;;;;;;5014400;28;20450;-82
2021/09/01 01:06:19;;;;;;;10.20;5.77;;;12.70;97.30;;;;;;5014272;28;20411;-83
2021/09/01 01:08:47;;;;;;;10.87;5.57;;;12.70;97.30;;;;;;5014529;28;20449;-82
2021/09/01 01:11:13;;;;;;;10.10;5.67;;;12.70;97.30;;;;;;5032684;28;20931;-82
2021/09/01 01:13:40;;;;;;;10.63;6.13;;;12.70;97.30;;;;;;5036711;28;20438;-83
2021/09/01 01:16:06;;;;;;;9.17;4.70;;;12.70;97.30;;;;;;5019279;28;20478;-83
2021/09/01 01:18:31;;;;;;;7.43;4.97;;;12.70;97.30;;;;;;5019111;28;20427;-83
2021/09/01 01:20:57;;;;;;;11.10;5.80;;;12.70;97.30;;;;;;5019073;28;20177;-83
2021/09/01 01:23:24;;;;;;;12.83;6.57;;;12.60;97.30;;;;;;5018705;28;20765;-82
2021/09/01 01:25:53;;;;;;;9.63;5.40;;;12.60;97.30;;;;;;5018828;28;20254;-83
2021/09/01 01:28:19;;;;;;;17.37;6.90;;;12.60;97.30;;;;;;5036019;28;20407;-83
2021/09/01 01:30:44;;;;;;;9.17;5.50;;;12.60;97.30;;;;;;5017990;28;20426;-82
2021/09/01 01:33:10;;;;;;;10.90;5.40;;;12.60;97.30;;;;;;5017746;28;20705;-83
2021/09/01 01:35:44;;;;;;;13.80;5.93;;;12.60;97.30;;;;;;5013866;28;20464;-82
2021/09/01 01:38:16;;;;;;;9.70;5.30;;;12.60;97.30;;;;;;5014355;28;20181;-82
2021/09/01 01:40:41;;;;;;;10.00;5.60;;;12.60;97.30;;;;;;5014087;28;20836;-82
2021/09/01 01:43:08;;;;;;;9.83;5.20;;;12.50;97.30;;;;;;5014453;28;20420;-82
2021/09/01 01:45:39;;;;;;;14.30;6.43;;;12.50;97.30;;;;;;5015913;28;20723;-83
2021/09/01 01:48:06;;;;;;;11.13;5.53;;;12.50;97.30;;;;;;5018966;28;20427;-83
2021/09/01 01:50:32;;;;;;;9.20;4.93;;;12.50;97.30;;;;;;5035132;28;20435;-83
2021/09/01 01:52:58;;;;;;;10.00;5.60;;;12.50;97.30;;;;;;5036008;28;20477;-82
2021/09/01 01:55:24;;;;;;;12.60;5.77;;;12.40;97.30;;;;;;5034224;28;20443;-83
2021/09/01 01:57:49;;;;;;;14.73;5.87;;;12.40;97.30;;;;;;5034144;28;20630;-83
2021/09/01 02:00:15;;;;;;;11.00;6.10;;;12.40;97.30;;;;;;5034405;28;20197;-82
2021/09/01 02:02:41;;;;;;;12.70;6.23;;;12.30;97.30;;;;;;5035316;28;20724;-83
2021/09/01 02:05:07;;;;;;;14.37;5.83;;;12.30;97.30;;;;;;5033209;28;20202;-83
2021/09/01 02:07:33;;;;;;;9.90;5.17;;;12.30;97.30;;;;;;5033204;28;20427;-82
2021/09/01 02:10:00;;;;;;;10.70;5.33;;;12.30;97.30;;;;;;5033124;28;20419;-83
2021/09/01 02:12:29;;;;;;;10.17;6.20;;;12.30;97.30;;;;;;5034497;28;20439;-82
2021/09/01 02:14:58;;;;;;;10.67;5.07;;;12.20;97.30;;;;;;5033424;28;20447;-83
2021/09/01 02:17:24;;;;;;;10.10;5.40;;;12.20;97.30;;;;;;5047414;28;20572;-83
2021/09/01 02:19:50;;;;;;;10.30;5.50;;;12.20;97.30;;;;;;5034470;28;20519;-82
2021/09/01 02:22:15;;;;;;;8.37;4.97;;;12.20;97.30;;;;;;5034417;28;20447;-82
2021/09/01 02:24:41;;;;;;;15.53;6.87;;;12.20;97.30;;;;;;5034040;28;20196;-83
2021/09/01 02:27:06;;;;;;;9.40;5.83;;;12.10;97.30;;;;;;5033944;28;20226;-83
2021/09/01 02:29:32;;;;;;;10.27;5.60;;;12.10;97.30;;;;;;5035059;28;20831;-83
2021/09/01 02:31:57;;;;;;;12.63;5.93;;;12.10;97.30;;;;;;5033922;28;20180;-83
2021/09/01 02:34:23;;;;;;;9.27;6.00;;;12.10;97.30;;;;;;5033554;28;20691;-83
2021/09/01 02:36:49;;;;;;;12.13;6.53;;;12.10;97.30;;;;;;5032823;28;20204;-83
2021/09/01 02:39:14;;;;;;;18.23;8.90;;;12.00;97.30;;;;;;5032515;28;20204;-83
2021/09/01 02:41:40;;;;;;;21.37;7.70;;;12.00;97.30;;;;;;5032708;28;20183;-82
2021/09/01 02:44:05;;;;;;;13.30;7.30;;;12.00;97.30;;;;;;5033058;28;20228;-82
2021/09/01 02:46:31;;;;;;;15.07;7.47;;;12.00;97.30;;;;;;5032983;28;20267;-83
2021/09/01 02:48:56;;;;;;;19.83;7.70;;;12.00;97.30;;;;;;5033279;28;20538;-82
2021/09/01 02:51:22;;;;;;;15.47;7.50;;;12.00;97.30;;;;;;5034021;28;20193;-83
2021/09/01 02:53:47;;;;;;;17.20;7.50;;;12.00;97.30;;;;;;5034103;28;20570;-82
2021/09/01 02:56:13;;;;;;;15.13;7.47;;;12.10;97.30;;;;;;5034134;28;20172;-83
2021/09/01 02:58:38;;;;;;;14.13;7.60;;;12.10;97.30;;;;;;5033169;28;20411;-83
2021/09/01 03:01:04;;;;;;;22.13;8.20;;;12.10;97.30;;;;;;5021627;28;20188;-83
2021/09/01 03:03:29;;;;;;;14.17;7.17;;;12.10;97.30;;;;;;5012946;28;20173;-82
2021/09/01 03:05:55;;;;;;;13.70;7.03;;;12.10;97.30;;;;;;5013371;28;20398;-83
2021/09/01 03:08:20;;;;;;;15.93;7.73;;;12.10;97.30;;;;;;5012433;28;20181;-83
2021/09/01 03:10:46;;;;;;;12.70;7.10;;;12.10;97.30;;;;;;5012454;28;20181;-82
2021/09/01 03:13:11;;;;;;;19.07;8.50;;;12.10;97.30;;;;;;5012302;28;20189;-82
2021/09/01 03:15:37;;;;;;;17.97;8.10;;;12.10;97.30;;;;;;5012539;28;20232;-83
2021/09/01 03:18:03;;;;;;;11.57;6.93;;;12.10;97.30;;;;;;5012507;28;20272;-82
2021/09/01 03:20:29;;;;;;;14.60;8.03;;;12.10;97.30;;;;;;5012549;28;20247;-82
2021/09/01 03:22:54;;;;;;;16.73;7.70;;;12.10;97.30;;;;;;5013824;28;20811;-83
2021/09/01 03:25:20;;;;;;;14.30;8.13;;;12.20;97.30;;;;;;5013884;28;20220;-83
2021/09/01 03:27:45;;;;;;;17.90;8.47;;;12.10;97.30;;;;;;5014832;28;20181;-83
2021/09/01 03:30:11;;;;;;;16.20;8.13;;;12.20;97.30;;;;;;5014223;28;20204;-82
2021/09/01 03:32:37;;;;;;;20.57;8.27;;;12.20;97.30;;;;;;5012911;28;20192;-83
2021/09/01 03:35:03;;;;;;;17.60;8.00;;;12.20;97.30;;;;;;5013747;28;20276;-83
2021/09/01 03:37:29;;;;;;;17.67;9.33;;;12.20;97.30;;;;;;5033556;28;20215;-83
2021/09/01 03:39:54;;;;;;;18.07;8.90;;;12.20;97.30;;;;;;5032105;28;20462;-83
2021/09/01 03:42:20;;;;;;;27.60;9.37;;;12.20;97.30;;;;;;5031478;28;20177;-83
2021/09/01 03:44:46;;;;;;;14.17;7.00;;;12.20;97.30;;;;;;5031875;28;20196;-83
2021/09/01 03:47:12;;;;;;;16.40;7.73;;;12.20;97.30;;;;;;5032178;28;20179;-83
2021/09/01 03:49:37;;;;;;;16.37;7.83;;;12.20;97.30;;;;;;5032838;28;20431;-82
2021/09/01 03:52:03;;;;;;;20.77;9.00;;;12.20;97.30;;;;;;5032298;28;20275;-82
2021/09/01 03:54:29;;;;;;;17.23;9.43;;;12.20;97.30;;;;;;5033103;28;20201;-83
2021/09/01 03:56:54;;;;;;;12.83;7.60;;;12.20;97.30;;;;;;5033742;28;20287;-83
2021/09/01 03:59:20;;;;;;;22.90;9.00;;;12.20;97.30;;;;;;5037379;28;20462;-83
2021/09/01 04:01:45;;;;;;;21.40;9.40;;;12.20;97.30;;;;;;5037716;28;20188;-83
2021/09/01 04:04:11;;;;;;;19.20;9.03;;;12.20;97.30;;;;;;5039090;28;20588;-82
2021/09/01 04:06:36;;;;;;;17.07;8.33;;;12.20;97.30;;;;;;5037132;28;20187;-82
2021/09/01 04:09:02;;;;;;;19.33;9.10;;;12.20;97.30;;;;;;5036952;28;20195;-83
2021/09/01 04:11:28;;;;;;;18.50;8.67;;;12.20;97.30;;;;;;5035091;28;20188;-83
2021/09/01 04:13:54;;;;;;;21.03;8.83;;;12.30;97.30;;;;;;5033506;28;20230;-83
2021/09/01 04:16:20;;;;;;;23.33;9.93;;;12.30;97.30;;;;;;5035626;28;20168;-82
2021/09/01 04:18:46;;;;;;;17.43;8.53;;;12.30;97.30;;;;;;5034476;28;20466;-82
2021/09/01 04:21:11;;;;;;;22.27;10.10;;;12.40;97.30;;;;;;5034526;28;20250;-83
2021/09/01 04:23:37;;;;;;;19.67;9.50;;;12.40;97.30;;;;;;5034503;28;20191;-82
2021/09/01 04:26:03;;;;;;;19.80;9.80;;;12.40;97.30;;;;;;5036154;28;20197;-83
2021/09/01 04:28:29;;;;;;;20.70;10.13;;;12.50;97.30;;;;;;5034498;28;20259;-82
2021/09/01 04:30:54;;;;;;;26.53;12.47;;;12.50;97.30;;;;;;5033204;28;20541;-83
2021/09/01 04:33:20;;;;;;;35.20;13.47;;;12.60;97.30;;;;;;5033728;28;20423;-83
2021/09/01 04:35:46;;;;;;;31.40;12.07;;;12.70;97.30;;;;;;5032902;28;20220;-83
2021/09/01 04:38:11;;;;;;;34.03;12.60;;;12.80;97.30;;;;;;5032651;28;20584;-83
2021/09/01 04:40:37;;;;;;;32.93;12.63;;;12.80;97.30;;;;;;5033740;28;20303;-82
2021/09/01 04:43:03;;;;;;;37.90;14.37;;;12.90;97.30;;;;;;5032928;28;20172;-82
2021/09/01 04:45:28;;;;;;;45.03;13.80;;;12.90;97.30;;;;;;5031941;28;20192;-83
2021/09/01 04:47:54;;;;;;;40.17;15.20;;;13.00;97.30;;;;;;5036233;28;20291;-83
2021/09/01 04:50:19;;;;;;;37.30;16.10;;;13.00;97.30;;;;;;5035496;28;20179;-83
2021/09/01 04:52:45;;;;;;;50.90;18.33;;;13.00;97.30;;;;;;5035604;28;20177;-83
2021/09/01 04:55:11;;;;;;;44.93;16.73;;;13.10;97.30;;;;;;5036106;28;20196;-83
2021/09/01 04:57:37;;;;;;;50.70;17.30;;;13.10;97.30;;;;;;5035680;28;20177;-83
2021/09/01 05:00:05;;;;;;;59.53;17.90;;;13.10;97.30;;;;;;5036225;28;20546;-83
2021/09/01 05:02:30;;;;;;;63.20;19.37;;;13.20;97.30;;;;;;5037618;28;20223;-83
2021/09/01 05:04:56;;;;;;;47.00;18.57;;;13.20;97.30;;;;;;5036992;28;20443;-83
2021/09/01 05:07:21;;;;;;;53.07;18.50;;;13.30;97.30;;;;;;5037297;28;20232;-83
2021/09/01 05:09:47;;;;;;;67.03;18.77;;;13.40;97.30;;;;;;5035892;28;20275;-82
2021/09/01 05:12:12;;;;;;;49.03;18.17;;;13.40;97.30;;;;;;5036066;28;20183;-83
2021/09/01 05:14:38;;;;;;;56.87;17.77;;;13.40;97.30;;;;;;5035341;28;20206;-83
2021/09/01 05:17:03;;;;;;;54.93;19.03;;;13.50;97.30;;;;;;5034936;28;20269;-83
2021/09/01 05:19:29;;;;;;;53.20;17.00;;;13.50;97.30;;;;;;5034361;28;20274;-83
2021/09/01 05:21:58;;;;;;;53.73;18.50;;;13.60;97.30;;;;;;5034847;28;20231;-83
2021/09/01 05:24:51;;;;;;;56.03;18.50;;;13.60;97.30;;;;;;5034500;28;20754;-83
2021/09/01 05:27:20;;;;;;;48.73;17.97;;;13.70;97.30;;;;;;5034761;28;21155;-83
2021/09/01 05:29:48;;;;;;;60.70;18.17;;;13.70;97.30;;;;;;5034734;28;20446;-83
2021/09/01 05:32:24;;;;;;;48.80;17.53;;;13.80;97.30;;;;;;5037335;28;20437;-83
2021/09/01 05:34:52;;;;;;;41.40;16.23;;;13.80;97.30;;;;;;5035686;28;20470;-83
2021/09/01 05:37:19;;;;;;;52.23;17.30;;;13.80;97.30;;;;;;5036008;28;20525;-83
2021/09/01 05:39:47;;;;;;;43.43;16.50;;;13.90;97.30;;;;;;5034981;28;21039;-83
2021/09/01 05:42:16;;;;;;;44.63;16.87;;;13.90;97.30;;;;;;5035303;28;20419;-83
2021/09/01 05:44:42;;;;;;;44.03;15.90;;;13.90;97.30;;;;;;5034761;28;20474;-83
2021/09/01 05:47:09;;;;;;;42.80;17.60;;;14.00;97.30;;;;;;5034687;28;20434;-83
2021/09/01 05:49:36;;;;;;;43.53;16.37;;;14.00;97.30;;;;;;5033594;28;20490;-80
2021/09/01 05:52:04;;;;;;;39.43;16.10;;;14.00;97.30;;;;;;5033853;28;20485;-83
2021/09/01 05:54:30;;;;;;;41.40;16.70;;;14.10;97.30;;;;;;5035043;28;20447;-83
2021/09/01 05:57:06;;;;;;;40.43;15.50;;;14.10;97.30;;;;;;5034234;28;20502;-83
2021/09/01 05:59:38;;;;;;;37.40;16.57;;;14.10;97.30;;;;;;5033063;28;20192;-82
2021/09/01 06:02:10;;;;;;;38.63;15.03;;;14.10;97.30;;;;;;5034642;28;20411;-82
2021/09/01 06:04:40;;;;;;;36.13;14.80;;;14.10;97.30;;;;;;5035241;28;20977;-82
2021/09/01 06:07:15;;;;;;;31.13;14.43;;;14.20;97.30;;;;;;5035245;28;20473;-83
2021/09/01 06:09:46;;;;;;;32.47;14.67;;;14.20;97.30;;;;;;5036291;28;20426;-83
2021/09/01 06:12:19;;;;;;;32.53;14.93;;;14.30;97.30;;;;;;5034087;28;20463;-82
2021/09/01 06:14:45;;;;;;;35.63;16.13;;;14.30;97.30;;;;;;5034076;28;20446;-82
2021/09/01 06:17:11;;;;;;;33.63;13.80;;;14.30;97.30;;;;;;5035001;28;20469;-83
2021/09/01 06:19:38;;;;;;;35.70;14.47;;;14.40;97.30;;;;;;5035229;28;20622;-81
2021/09/01 06:22:04;;;;;;;31.40;12.87;;;14.40;97.30;;;;;;5033304;28;20172;-83
2021/09/01 06:24:34;;;;;;;31.87;12.77;;;14.40;97.30;;;;;;5033435;28;20811;-82
2021/09/01 06:27:00;;;;;;;30.23;13.63;;;14.40;97.30;;;;;;5034843;28;20502;-82
2021/09/01 06:29:27;;;;;;;36.13;15.43;;;14.40;97.30;;;;;;5033689;28;20416;-83
2021/09/01 06:31:52;;;;;;;31.80;12.10;;;14.50;97.30;;;;;;5033327;28;20795;-83
2021/09/01 06:34:18;;;;;;;36.77;13.90;;;14.50;97.30;;;;;;5034061;28;20463;-82
2021/09/01 06:36:44;;;;;;;42.00;16.20;;;14.50;97.30;;;;;;5035714;28;20180;-83
2021/09/01 06:39:09;;;;;;;35.97;13.77;;;14.60;97.30;;;;;;5034646;28;20238;-85
2021/09/01 06:41:35;;;;;;;34.50;13.57;;;14.60;97.30;;;;;;5034338;28;20643;-85
2021/09/01 06:44:00;;;;;;;35.33;13.80;;;14.60;97.30;;;;;;5035446;28;20180;-83
2021/09/01 06:46:26;;;;;;;36.73;13.40;;;14.60;97.30;;;;;;5033846;28;20181;-82
2021/09/01 06:48:51;;;;;;;38.13;14.03;;;14.60;97.30;;;;;;5033554;28;20219;-83
2021/09/01 06:51:17;;;;;;;35.70;13.83;;;14.60;97.30;;;;;;5033061;28;20191;-82
2021/09/01 06:53:42;;;;;;;30.97;14.17;;;14.60;97.30;;;;;;5032821;28;20181;-84
2021/09/01 06:56:08;;;;;;;32.10;13.13;;;14.70;97.30;;;;;;5032427;28;20295;-84
2021/09/01 06:58:35;;;;;;;36.43;14.13;;;14.70;97.30;;;;;;5032346;28;20185;-84
2021/09/01 07:01:00;;;;;;;38.57;13.87;;;14.70;97.30;;;;;;5034324;28;20169;-82
2021/09/01 07:03:26;;;;;;;39.50;14.97;;;14.70;97.30;;;;;;5024868;28;20477;-83
2021/09/01 07:05:51;;;;;;;38.00;14.50;;;14.70;97.30;;;;;;5023155;28;20197;-82
2021/09/01 07:08:17;;;;;;;32.13;13.67;;;14.80;97.30;;;;;;5032362;28;20275;-83
2021/09/01 07:10:44;;;;;;;37.37;13.97;;;14.80;97.30;;;;;;5029071;28;20177;-85
2021/09/01 07:13:10;;;;;;;45.97;13.60;;;14.80;97.30;;;;;;5017392;28;20431;-84
2021/09/01 07:15:36;;;;;;;35.13;14.30;;;14.80;97.30;;;;;;5024558;28;20439;-82
2021/09/01 07:18:02;;;;;;;39.03;13.20;;;14.80;97.30;;;;;;5033226;28;20430;-83
2021/09/01 07:20:27;;;;;;;37.93;15.70;;;14.90;97.30;;;;;;5027061;28;20597;-83
2021/09/01 07:22:53;;;;;;;33.50;14.53;;;14.90;97.30;;;;;;5020703;28;20185;-82
2021/09/01 07:25:18;;;;;;;43.23;15.67;;;14.90;97.30;;;;;;5022929;28;20746;-84
2021/09/01 07:27:44;;;;;;;41.40;15.53;;;14.90;97.30;;;;;;5020399;28;20174;-85
2021/09/01 07:30:10;;;;;;;40.33;15.90;;;14.90;97.30;;;;;;5017340;28;20176;-83
2021/09/01 07:32:36;;;;;;;42.37;17.00;;;14.90;97.30;;;;;;5021560;28;20216;-84
2021/09/01 07:35:02;;;;;;;46.57;16.47;;;14.90;97.30;;;;;;5019958;28;20466;-84
2021/09/01 07:37:27;;;;;;;43.87;16.10;;;14.90;97.30;;;;;;5021215;28;20207;-84
2021/09/01 07:39:53;;;;;;;31.43;13.27;;;14.90;97.30;;;;;;5022477;28;20460;-84
2021/09/01 07:42:19;;;;;;;38.77;15.83;;;14.90;97.30;;;;;;5022492;28;20183;-84
2021/09/01 07:44:45;;;;;;;39.47;16.70;;;15.00;97.30;;;;;;5028546;28;20192;-84
2021/09/01 07:47:10;;;;;;;44.40;15.63;;;15.00;97.30;;;;;;5024924;28;20181;-84
2021/09/01 07:49:36;;;;;;;48.83;16.57;;;15.00;97.30;;;;;;5012740;28;20563;-83
2021/09/01 07:52:02;;;;;;;43.00;16.87;;;15.00;97.30;;;;;;5018025;28;20177;-84
2021/09/01 07:54:28;;;;;;;52.63;17.33;;;15.10;97.30;;;;;;5018767;28;20220;-84
2021/09/01 07:56:53;;;;;;;46.67;16.90;;;15.10;97.30;;;;;;5027942;28;20416;-84
2021/09/01 07:59:19;;;;;;;42.13;17.90;;;15.10;97.30;;;;;;5011353;28;20201;-84
2021/09/01 08:01:44;;;;;;;41.67;16.27;;;15.10;97.30;;;;;;5011933;28;20183;-82
2021/09/01 08:04:10;;;;;;;35.43;16.07;;;15.10;97.30;;;;;;5011619;28;20296;-84
2021/09/01 08:06:35;;;;;;;38.70;17.73;;;15.00;97.30;;;;;;5011768;28;20216;-84
2021/09/01 08:09:01;;;;;;;37.33;15.60;;;15.10;97.30;;;;;;5012144;28;20208;-84
2021/09/01 08:11:26;;;;;;;35.10;14.40;;;15.10;97.30;;;;;;5027349;28;20177;-84
2021/09/01 08:13:52;;;;;;;37.83;15.20;;;15.10;97.30;;;;;;5032995;28;20177;-84
2021/09/01 08:16:18;;;;;;;35.97;15.37;;;15.00;97.30;;;;;;5034028;28;20192;-84
2021/09/01 08:18:43;;;;;;;32.67;14.50;;;15.10;97.30;;;;;;5033098;28;20199;-84
2021/09/01 08:21:09;;;;;;;38.57;15.10;;;15.10;97.30;;;;;;5031355;28;20196;-84
2021/09/01 08:23:35;;;;;;;35.93;16.17;;;15.10;97.30;;;;;;5032960;28;20700;-81
2021/09/01 08:26:00;;;;;;;45.13;16.30;;;15.20;97.30;;;;;;5033086;28;20192;-83
2021/09/01 08:28:27;;;;;;;43.47;17.63;;;15.20;97.30;;;;;;5031383;28;20569;-84
2021/09/01 08:30:52;;;;;;;34.50;15.47;;;15.20;97.30;;;;;;5030984;28;20427;-84
2021/09/01 08:33:18;;;;;;;31.50;13.77;;;15.30;97.30;;;;;;5031401;28;20187;-84
2021/09/01 08:35:43;;;;;;;38.33;15.10;;;15.30;97.30;;;;;;5030913;28;20228;-84
2021/09/01 08:38:09;;;;;;;38.80;14.83;;;15.30;97.30;;;;;;5031361;28;20184;-83
2021/09/01 08:40:34;;;;;;;35.70;14.40;;;15.20;97.30;;;;;;5031553;28;20212;-84
2021/09/01 08:43:01;;;;;;;30.17;13.50;;;15.30;97.30;;;;;;5031932;28;20256;-83
2021/09/01 08:45:26;;;;;;;34.60;14.60;;;15.30;97.30;;;;;;5034186;28;20279;-83
2021/09/01 08:47:54;;;;;;;35.27;14.27;;;15.30;97.30;;;;;;5032173;28;21106;-84
2021/09/01 08:50:20;;;;;;;39.27;14.53;;;15.30;97.30;;;;;;5026230;28;20686;-84
2021/09/01 08:52:45;;;;;;;33.03;13.97;;;15.40;97.30;;;;;;5011923;28;20432;-84
2021/09/01 08:55:13;;;;;;;34.90;13.90;;;15.50;97.30;;;;;;5011844;28;20668;-84
2021/09/01 08:57:38;;;;;;;31.67;13.57;;;15.50;97.30;;;;;;5011969;28;20181;-84
2021/09/01 09:00:05;;;;;;;29.83;14.23;;;15.50;97.30;;;;;;5011994;28;20467;-84
2021/09/01 09:02:31;;;;;;;32.80;13.97;;;15.50;97.30;;;;;;5010688;28;20185;-83
2021/09/01 09:04:58;;;;;;;34.97;14.20;;;15.50;97.30;;;;;;5011002;28;20981;-84
2021/09/01 09:07:24;;;;;;;30.10;12.20;;;15.60;97.30;;;;;;5011056;28;20177;-84
2021/09/01 09:09:50;;;;;;;28.10;13.07;;;15.60;97.30;;;;;;5012227;28;20976;-84
2021/09/01 09:12:16;;;;;;;25.67;11.90;;;15.60;97.30;;;;;;5011436;28;20181;-84
2021/09/01 09:14:48;;;;;;;31.23;12.43;;;15.70;97.30;;;;;;5013597;28;20554;-84
2021/09/01 09:17:19;;;;;;;36.00;13.70;;;15.70;97.30;;;;;;5032148;28;20421;-84
2021/09/01 09:20:04;;;;;;;23.50;12.57;;;15.80;97.30;;;;;;5031876;28;21000;-83
2021/09/01 09:22:38;;;;;;;25.37;12.17;;;15.80;97.30;;;;;;5031527;28;20411;-84
2021/09/01 09:25:24;;;;;;;28.93;12.63;;;15.80;97.30;;;;;;5032664;28;20435;-84
2021/09/01 09:27:54;;;;;;;29.07;12.67;;;15.90;97.30;;;;;;5031361;28;20415;-84
2021/09/01 09:30:20;;;;;;;26.70;12.37;;;15.90;97.30;;;;;;5031182;28;20415;-83
2021/09/01 09:33:06;;;;;;;26.97;13.50;;;16.00;97.30;;;;;;5031794;28;20469;-83
2021/09/01 09:35:51;;;;;;;28.23;13.37;;;16.00;97.30;;;;;;5033726;28;20764;-84
2021/09/01 09:38:34;;;;;;;27.33;12.70;;;16.10;97.30;;;;;;5035212;28;20407;-84
2021/09/01 09:41:02;;;;;;;30.47;13.37;;;16.20;97.30;;;;;;5035266;28;20443;-84
2021/09/01 09:43:30;;;;;;;31.90;12.47;;;16.20;97.30;;;;;;5034132;28;20407;-83
2021/09/01 09:46:13;;;;;;;30.83;13.77;;;16.30;97.30;;;;;;5035064;28;20443;-84
2021/09/01 09:48:40;;;;;;;29.87;13.57;;;16.50;97.30;;;;;;5016535;28;20408;-83
2021/09/01 09:51:09;;;;;;;30.27;13.07;;;16.60;97.30;;;;;;5015655;28;20506;-84
2021/09/01 09:53:50;;;;;;;39.77;14.70;;;16.60;97.30;;;;;;5025956;28;20420;-83
2021/09/01 09:56:20;;;;;;;36.03;14.57;;;16.80;97.30;;;;;;5031448;28;20395;-84
2021/09/01 09:58:54;;;;;;;44.83;15.00;;;16.90;97.30;;;;;;5030850;28;20447;-83
2021/09/01 10:01:21;;;;;;;31.80;14.50;;;17.10;97.30;;;;;;5046400;28;20439;-80
2021/09/01 10:03:48;;;;;;;31.07;12.67;;;17.30;97.30;;;;;;5050495;28;20431;-80
2021/09/01 10:06:18;;;;;;;32.63;13.80;;;17.50;97.30;;;;;;5051359;28;20419;-81
2021/09/01 10:08:49;;;;;;;34.17;13.20;;;17.60;97.30;;;;;;5041103;28;20407;-83
2021/09/01 10:11:16;;;;;;;33.90;15.67;;;17.70;97.30;;;;;;5034196;28;20411;-84
2021/09/01 10:13:43;;;;;;;35.07;16.17;;;17.80;97.30;;;;;;5033773;28;20419;-84
2021/09/01 10:16:21;;;;;;;32.23;13.83;;;17.90;97.30;;;;;;5034064;28;20427;-84
2021/09/01 10:19:13;;;;;;;33.73;15.93;;;17.90;97.30;;;;;;5035208;28;20411;-84
2021/09/01 10:21:43;;;;;;;36.00;16.00;;;17.90;97.30;;;;;;5036046;28;20415;-83
2021/09/01 10:24:21;;;;;;;35.67;15.60;;;18.00;97.30;;;;;;5034889;28;20445;-84
2021/09/01 10:27:16;;;;;;;35.60;13.67;;;18.10;97.30;;;;;;5019303;28;20419;-83
2021/09/01 10:29:44;;;;;;;36.57;15.13;;;18.30;97.30;;;;;;5025064;28;21110;-84
2021/09/01 10:32:40;;;;;;;40.00;16.37;;;18.40;97.30;;;;;;5028065;28;20535;-83
2021/09/01 10:35:18;;;;;;;38.97;14.73;;;18.60;97.30;;;;;;5023152;28;20472;-85
2021/09/01 10:37:49;;;;;;;35.03;15.27;;;18.80;97.30;;;;;;5031256;28;21199;-84
2021/09/01 10:40:34;;;;;;;37.73;15.20;;;18.80;97.30;;;;;;5026842;28;20505;-83
2021/09/01 10:43:19;;;;;;;35.70;15.00;;;18.90;97.30;;;;;;5021979;28;20427;-84
2021/09/01 10:45:47;;;;;;;32.00;14.27;;;18.90;97.30;;;;;;5013194;28;20444;-83
2021/09/01 10:48:14;;;;;;;30.43;14.13;;;18.90;97.30;;;;;;5013649;28;20850;-84
2021/09/01 10:50:45;;;;;;;35.57;13.20;;;18.90;97.30;;;;;;5015297;28;20459;-84
2021/09/01 10:53:23;;;;;;;30.13;13.23;;;18.90;97.30;;;;;;5014991;28;20443;-83
2021/09/01 10:55:56;;;;;;;29.97;12.80;;;18.90;97.30;;;;;;5016304;28;20474;-83
2021/09/01 10:58:36;;;;;;;33.80;15.03;;;18.90;97.30;;;;;;5015559;28;20502;-84
2021/09/01 11:01:11;;;;;;;38.93;14.50;;;18.90;97.30;;;;;;5023670;28;20466;-83
2021/09/01 11:03:49;;;;;;;33.70;13.97;;;18.90;97.30;;;;;;5034998;28;20411;-83
2021/09/01 11:06:18;;;;;;;30.30;13.17;;;18.90;97.30;;;;;;5035477;28;20403;-83
2021/09/01 11:09:14;;;;;;;24.90;11.80;;;19.00;97.30;;;;;;5031535;28;20431;-83
2021/09/01 11:11:46;;;;;;;26.53;11.97;;;19.30;97.30;;;;;;5030902;28;20450;-84
2021/09/01 11:14:15;;;;;;;34.17;12.73;;;19.40;97.30;;;;;;5032081;28;20450;-83
2021/09/01 11:16:40;;;;;;;28.80;12.63;;;19.60;97.30;;;;;;5027930;28;20415;-83
2021/09/01 11:19:08;;;;;;;23.70;11.63;;;19.70;97.30;;;;;;5025487;28;20458;-83
2021/09/01 11:21:44;;;;;;;22.93;11.57;;;19.80;97.30;;;;;;5030415;28;20246;-83
2021/09/01 11:24:11;;;;;;;30.23;11.40;;;19.90;97.30;;;;;;5031282;28;20862;-84
2021/09/01 11:26:37;;;;;;;25.10;12.27;;;19.90;97.30;;;;;;5033405;28;20451;-83
2021/09/01 11:29:06;;;;;;;31.60;11.50;;;20.00;97.30;;;;;;5034046;28;20522;-82
2021/09/01 11:31:33;;;;;;;22.37;11.03;;;20.20;97.30;;;;;;5034648;28;20420;-82
2021/09/01 11:34:00;;;;;;;20.50;11.50;;;20.40;97.30;;;;;;5034611;28;20502;-83
2021/09/01 11:36:28;;;;;;;26.20;10.13;;;20.60;97.30;;;;;;5054395;28;20752;-83
2021/09/01 11:38:56;;;;;;;17.50;8.90;;;20.70;97.30;;;;;;5036595;28;20560;-85
2021/09/01 11:41:23;;;;;;;23.33;11.00;;;20.90;97.30;;;;;;5054147;28;20441;-84
2021/09/01 11:44:00;;;;;;;21.37;9.87;;;20.90;97.30;;;;;;5035431;28;20430;-82
2021/09/01 11:46:32;;;;;;;17.37;10.10;;;21.00;97.30;;;;;;5053769;28;20431;-83
2021/09/01 11:49:06;;;;;;;21.80;10.17;;;21.10;97.30;;;;;;5035442;28;20434;-85
2021/09/01 11:51:32;;;;;;;21.57;10.67;;;21.30;97.30;;;;;;5035084;28;20800;-85
2021/09/01 11:53:59;;;;;;;19.97;9.57;;;21.30;96.90;;;;;;5036203;28;20418;-82
2021/09/01 11:56:26;;;;;;;16.03;8.40;;;21.10;97.30;;;;;;5053732;28;20901;-81
2021/09/01 11:58:56;;;;;;;22.90;9.30;;;21.20;97.20;;;;;;5054474;28;20406;-81
2021/09/01 12:01:21;;;;;;;19.33;8.43;;;21.10;97.30;;;;;;5054360;28;20406;-84
2021/09/01 12:03:47;;;;;;;16.50;8.50;;;21.20;96.70;;;;;;5035910;28;20426;-83
2021/09/01 12:06:12;;;;;;;16.80;8.80;;;21.20;97.30;;;;;;5036245;28;20195;-84
2021/09/01 12:08:47;;;;;;;15.63;7.83;;;21.40;96.20;;;;;;5035679;28;20759;-83
2021/09/01 12:11:13;;;;;;;18.60;8.03;;;21.50;95.30;;;;;;5052577;28;20175;-83
2021/09/01 12:13:40;;;;;;;15.87;7.70;;;21.50;94.40;;;;;;5034190;28;20422;-85
2021/09/01 12:16:07;;;;;;;13.40;7.70;;;21.40;94.90;;;;;;5051592;28;20438;-85
2021/09/01 12:18:51;;;;;;;18.47;8.13;;;21.30;94.90;;;;;;5052547;28;20951;-84
2021/09/01 12:21:18;;;;;;;19.83;7.37;;;21.30;95.70;;;;;;5052567;28;20450;-84
2021/09/01 12:23:44;;;;;;;19.50;7.83;;;21.40;94.80;;;;;;5052609;28;20402;-84
2021/09/01 12:26:10;;;;;;;20.97;8.13;;;21.50;94.30;;;;;;5035353;28;20430;-84
2021/09/01 12:28:43;;;;;;;14.33;7.77;;;21.50;95.40;;;;;;5036438;28;20468;-83
2021/09/01 12:31:23;;;;;;;26.60;10.53;;;21.60;95.80;;;;;;5035728;28;20245;-84
2021/09/01 12:33:49;;;;;;;20.77;8.30;;;21.80;96.10;;;;;;5035647;28;20429;-83